createdAt,value
2022-08-12T07:47:59.885Z,99.60
2022-08-12T07:50:26.538Z,99.30
2022-08-12T07:52:53.270Z,99.20
2022-08-12T07:55:19.955Z,98.60
2022-08-12T07:57:57.627Z,98.50
2022-08-12T08:00:29.461Z,97.70
2022-08-12T08:02:56.141Z,97.40
2022-08-12T08:05:24.703Z,97.30
2022-08-12T08:07:53.298Z,97.50
2022-08-12T08:10:20.492Z,97.10
2022-08-12T08:12:58.582Z,97.20
2022-08-12T08:16:01.364Z,96.90
2022-08-12T08:18:20.456Z,96.90
2022-08-12T08:20:54.397Z,96.90
2022-08-12T08:23:21.301Z,97.20
2022-08-12T08:25:50.010Z,96.60
2022-08-12T08:28:19.383Z,96.90
2022-08-12T08:30:47.757Z,96.10
2022-08-12T08:33:22.821Z,96.10
2022-08-12T08:35:54.477Z,94.90
2022-08-12T08:38:32.421Z,95.00
2022-08-12T08:42:15.455Z,94.30
2022-08-12T08:44:05.753Z,93.70
2022-08-12T08:46:37.699Z,92.50
2022-08-12T08:49:05.322Z,91.90
2022-08-12T08:51:32.367Z,91.70
2022-08-12T08:53:58.980Z,92.20
2022-08-12T08:56:27.054Z,91.30
2022-08-12T08:58:53.700Z,91.20
2022-08-12T09:01:23.158Z,91.10
2022-08-12T09:06:41.882Z,91.00
2022-08-12T09:09:13.427Z,90.30
2022-08-12T09:12:10.790Z,90.00
2022-08-12T09:14:47.151Z,90.00
2022-08-12T09:20:06.002Z,88.40
2022-08-12T09:22:35.215Z,86.40
2022-08-12T09:25:06.159Z,86.80
2022-08-12T09:28:04.245Z,86.30
2022-08-12T09:30:41.819Z,85.60
2022-08-12T09:33:15.216Z,84.80
2022-08-12T09:36:04.727Z,84.70
2022-08-12T09:38:33.630Z,82.80
2022-08-12T09:42:33.078Z,82.10
2022-08-12T09:44:38.511Z,80.50
2022-08-12T09:46:56.293Z,80.80
2022-08-12T09:49:24.929Z,79.40
2022-08-12T09:51:54.284Z,79.00
2022-08-12T09:54:33.183Z,77.80
2022-08-12T09:58:46.418Z,77.10
2022-08-12T10:00:13.931Z,76.70
2022-08-12T10:03:01.093Z,76.30
2022-08-12T10:06:19.687Z,75.60
2022-08-12T10:08:22.423Z,74.80
2022-08-12T10:11:08.728Z,74.00
2022-08-12T10:13:46.229Z,73.30
2022-08-12T10:16:22.517Z,72.70
2022-08-12T10:18:56.267Z,72.20
2022-08-12T10:21:35.704Z,71.10
2022-08-12T10:24:06.028Z,69.00
2022-08-12T10:26:52.686Z,69.90
2022-08-12T10:30:37.084Z,69.70
2022-08-12T10:32:43.862Z,69.40
2022-08-12T10:35:14.551Z,68.00
2022-08-12T10:38:32.134Z,67.40
2022-08-12T10:40:33.044Z,68.00
2022-08-12T10:43:19.933Z,67.30
2022-08-12T10:45:49.293Z,67.30
2022-08-12T10:48:21.769Z,67.50
2022-08-12T10:51:01.870Z,67.30
2022-08-12T10:53:45.863Z,67.10
2022-08-12T10:56:17.462Z,67.20
2022-08-12T10:58:47.946Z,65.90
2022-08-12T11:04:14.526Z,65.70
2022-08-12T11:04:35.880Z,65.90
2022-08-12T11:07:05.910Z,65.30
2022-08-12T11:10:00.072Z,64.80
2022-08-12T11:12:56.459Z,63.70
2022-08-12T11:15:21.127Z,64.50
2022-08-12T11:17:59.700Z,64.80
2022-08-12T11:20:30.993Z,64.10
2022-08-12T11:23:03.821Z,63.60
2022-08-12T11:25:56.127Z,63.60
2022-08-12T11:28:33.523Z,63.00
2022-08-12T11:31:06.822Z,62.40
2022-08-12T11:34:04.171Z,61.60
2022-08-12T11:36:23.315Z,61.80
2022-08-12T11:38:52.806Z,61.90
2022-08-12T11:41:27.936Z,62.70
2022-08-12T11:43:59.213Z,63.50
2022-08-12T11:46:26.394Z,62.80
2022-08-12T11:48:53.377Z,61.60
2022-08-12T11:51:21.015Z,61.90
2022-08-12T11:53:59.307Z,61.90
2022-08-12T11:56:38.904Z,61.30
2022-08-12T12:02:00.731Z,60.90
2022-08-12T12:04:31.236Z,60.60
2022-08-12T12:07:07.388Z,60.80
2022-08-12T12:09:52.878Z,61.10
2022-08-12T12:12:23.397Z,60.70
2022-08-12T12:14:54.549Z,60.10
2022-08-12T12:17:25.513Z,59.80
2022-08-12T12:19:53.269Z,60.50
2022-08-12T12:22:23.226Z,60.40
2022-08-12T12:24:54.015Z,60.70
2022-08-12T12:27:20.895Z,60.90
2022-08-12T12:30:19.392Z,60.40
2022-08-12T12:32:54.804Z,59.10
2022-08-12T12:36:05.983Z,58.70
2022-08-12T12:38:12.300Z,58.50
2022-08-12T12:40:43.853Z,58.80
2022-08-12T12:43:11.487Z,58.50
2022-08-12T12:45:39.482Z,57.70
2022-08-12T12:48:17.668Z,58.60
2022-08-12T12:51:12.437Z,58.10
2022-08-12T12:54:07.772Z,57.40
2022-08-12T12:56:34.190Z,57.60
2022-08-12T12:59:03.724Z,58.30
2022-08-12T13:01:31.872Z,57.60
2022-08-12T13:04:02.197Z,57.70
2022-08-12T13:06:30.723Z,57.40
2022-08-12T13:09:03.211Z,57.90
2022-08-12T13:11:42.031Z,57.20
2022-08-12T13:14:28.748Z,57.50
2022-08-12T13:16:57.782Z,57.70
2022-08-12T13:19:38.743Z,57.20
2022-08-12T13:22:19.906Z,57.00
2022-08-12T13:24:54.532Z,56.90
2022-08-12T13:27:22.551Z,57.50
2022-08-12T13:29:49.197Z,57.20
2022-08-12T13:32:30.931Z,57.10
2022-08-12T13:35:04.261Z,57.30
2022-08-12T13:37:54.682Z,57.40
2022-08-12T13:40:23.179Z,57.50
2022-08-12T13:42:55.834Z,57.40
2022-08-12T13:45:22.547Z,57.00
2022-08-12T13:48:03.598Z,57.60
2022-08-12T13:50:36.470Z,57.30
2022-08-12T13:53:23.408Z,57.70
2022-08-12T13:55:59.872Z,57.40
2022-08-12T13:58:30.701Z,57.80
2022-08-12T14:00:58.526Z,57.60
2022-08-12T14:03:28.678Z,58.50
2022-08-12T14:06:15.437Z,58.60
2022-08-12T14:08:42.887Z,58.70
2022-08-12T14:11:09.678Z,58.30
2022-08-12T14:14:03.154Z,58.20
2022-08-12T14:16:37.916Z,58.20
2022-08-12T14:19:22.805Z,58.20
2022-08-12T14:22:00.914Z,58.70
2022-08-12T14:24:35.344Z,58.70
2022-08-12T14:27:03.734Z,58.30
2022-08-12T14:29:38.298Z,58.40
2022-08-12T14:32:23.637Z,59.00
2022-08-12T14:34:51.478Z,57.20
2022-08-12T14:37:58.008Z,57.00
2022-08-12T14:40:06.526Z,56.90
2022-08-12T14:42:33.220Z,57.90
2022-08-12T14:45:02.178Z,57.90
2022-08-12T14:47:35.396Z,57.60
2022-08-12T14:50:37.369Z,57.80
2022-08-12T14:58:32.055Z,57.90
2022-08-12T15:01:19.890Z,56.50
2022-08-12T15:03:57.346Z,55.70
2022-08-12T15:06:43.819Z,56.40
2022-08-12T15:09:16.196Z,56.40
2022-08-12T15:11:55.776Z,56.10
2022-08-12T15:14:30.635Z,56.50
2022-08-12T15:16:59.968Z,56.20
2022-08-12T15:20:09.241Z,55.70
2022-08-12T15:22:38.383Z,55.30
2022-08-12T15:25:03.656Z,56.00
2022-08-12T15:28:05.474Z,56.20
2022-08-12T15:30:24.762Z,56.60
2022-08-12T15:32:53.549Z,56.70
2022-08-12T15:35:20.704Z,56.90
2022-08-12T15:38:10.026Z,57.30
2022-08-12T15:40:49.980Z,58.60
2022-08-12T15:43:50.989Z,57.50
2022-08-12T15:46:15.366Z,58.00
2022-08-12T15:48:46.814Z,56.80
2022-08-12T15:51:57.283Z,57.00
2022-08-12T15:54:33.934Z,57.00
2022-08-12T15:57:05.667Z,57.30
2022-08-12T16:00:02.377Z,56.80
2022-08-12T16:02:20.572Z,56.90
2022-08-12T16:04:55.201Z,56.70
2022-08-12T16:07:31.094Z,57.10
2022-08-12T16:10:06.780Z,56.40
2022-08-12T16:12:39.699Z,55.90
2022-08-12T16:15:07.429Z,56.90
2022-08-12T16:18:19.505Z,57.00
2022-08-12T16:20:33.195Z,55.40
2022-08-12T16:23:36.335Z,55.40
2022-08-12T16:26:05.563Z,55.00
2022-08-12T16:28:33.419Z,54.10
2022-08-12T16:31:01.926Z,54.00
2022-08-12T16:33:58.841Z,55.40
2022-08-12T16:36:25.494Z,54.30
2022-08-12T16:38:52.332Z,53.60
2022-08-12T16:41:19.048Z,54.70
2022-08-12T16:43:46.648Z,55.00
2022-08-12T16:46:31.997Z,54.80
2022-08-12T16:49:08.651Z,55.30
2022-08-12T16:51:45.956Z,55.80
2022-08-12T16:54:16.388Z,56.50
2022-08-12T16:56:51.187Z,56.30
2022-08-12T16:59:31.196Z,56.60
2022-08-12T17:02:31.198Z,56.40
2022-08-12T17:05:03.357Z,56.50
2022-08-12T17:07:36.629Z,55.80
2022-08-12T17:10:06.702Z,55.70
2022-08-12T17:12:37.629Z,55.50
2022-08-12T17:15:50.473Z,56.30
2022-08-12T17:18:39.438Z,56.30
2022-08-12T17:20:47.363Z,57.00
2022-08-12T17:23:16.461Z,57.10
2022-08-12T17:25:52.373Z,57.20
2022-08-12T17:28:21.351Z,57.00
2022-08-12T17:30:57.429Z,57.40
2022-08-12T17:33:27.282Z,57.40
2022-08-12T17:35:58.478Z,57.50
2022-08-12T17:38:25.301Z,58.00
2022-08-12T17:40:55.446Z,58.40
2022-08-12T17:43:54.878Z,57.80
2022-08-12T17:46:12.943Z,58.40
2022-08-12T17:48:55.401Z,58.20
2022-08-12T17:51:25.596Z,58.50
2022-08-12T17:54:11.416Z,58.70
2022-08-12T17:56:43.283Z,59.60
2022-08-12T17:59:12.537Z,59.50
2022-08-12T18:01:43.722Z,59.40
2022-08-12T18:04:21.620Z,59.80
2022-08-12T18:06:50.891Z,60.20
2022-08-12T18:09:20.300Z,60.50
2022-08-12T18:12:08.383Z,60.90
2022-08-12T18:14:38.047Z,61.10
2022-08-12T18:17:09.828Z,61.70
2022-08-12T18:20:07.120Z,61.80
2022-08-12T18:22:31.760Z,61.90
2022-08-12T18:25:04.197Z,62.50
2022-08-12T18:27:44.621Z,63.70
2022-08-12T18:30:20.352Z,62.90
2022-08-12T18:33:04.504Z,63.60
2022-08-12T18:35:47.150Z,64.00
2022-08-12T18:38:22.175Z,65.00
2022-08-12T18:41:09.478Z,64.30
2022-08-12T18:43:57.559Z,64.60
2022-08-12T18:46:32.705Z,64.90
2022-08-12T18:49:19.095Z,64.70
2022-08-12T18:51:55.346Z,64.90
2022-08-12T18:54:53.237Z,65.80
2022-08-12T18:57:45.943Z,65.90
2022-08-12T19:00:21.400Z,66.50
2022-08-12T19:02:50.262Z,66.30
2022-08-12T19:05:19.761Z,66.40
2022-08-12T19:08:00.820Z,67.10
2022-08-12T19:10:30.379Z,67.50
2022-08-12T19:13:23.029Z,68.00
2022-08-12T19:15:53.329Z,67.90
2022-08-12T19:18:22.093Z,68.30
2022-08-12T19:20:50.711Z,68.50
2022-08-12T19:23:20.974Z,68.50
2022-08-12T19:26:01.478Z,68.70
2022-08-12T19:28:34.762Z,68.90
2022-08-12T19:31:56.177Z,69.00
2022-08-12T19:38:03.517Z,70.10
2022-08-12T19:40:31.496Z,69.80
2022-08-12T19:43:17.286Z,70.10
2022-08-12T19:45:53.068Z,70.20
2022-08-12T19:48:23.404Z,70.70
2022-08-12T19:50:53.480Z,70.60
2022-08-12T19:53:22.817Z,70.70
2022-08-12T19:55:52.935Z,71.00
2022-08-12T19:58:21.713Z,71.80
2022-08-12T20:00:53.312Z,71.40
2022-08-12T20:03:39.954Z,71.40
2022-08-12T20:06:16.136Z,71.80
2022-08-12T20:08:56.339Z,71.50
2022-08-12T20:12:13.915Z,72.00
2022-08-12T20:14:19.017Z,72.00
2022-08-12T20:16:51.873Z,72.20
2022-08-12T20:19:21.427Z,72.00
2022-08-12T20:21:54.968Z,72.20
2022-08-12T20:24:21.699Z,73.70
2022-08-12T20:26:48.949Z,73.00
2022-08-12T20:29:16.347Z,73.10
2022-08-12T20:31:43.658Z,73.40
2022-08-12T20:34:12.363Z,73.30
2022-08-12T20:36:44.725Z,73.30
2022-08-12T20:39:34.289Z,73.80
2022-08-12T20:42:07.315Z,73.70
2022-08-12T20:44:40.022Z,74.70
2022-08-12T20:47:17.899Z,74.60
2022-08-12T20:49:55.059Z,75.00
2022-08-12T20:52:29.253Z,74.90
2022-08-12T20:54:57.823Z,75.00
2022-08-12T20:57:37.880Z,75.00
2022-08-12T21:00:14.255Z,75.90
2022-08-12T21:02:45.519Z,75.50
2022-08-12T21:06:09.677Z,75.80
2022-08-12T21:08:26.565Z,76.30
2022-08-12T21:10:55.913Z,77.10
2022-08-12T21:13:26.669Z,76.80
2022-08-12T21:15:55.135Z,77.10
2022-08-12T21:18:28.327Z,77.70
2022-08-12T21:20:56.240Z,77.10
2022-08-12T21:23:23.552Z,77.60
2022-08-12T21:26:01.165Z,78.10
2022-08-12T21:28:31.679Z,78.30
2022-08-12T21:32:36.135Z,78.40
2022-08-12T21:34:07.429Z,79.10
2022-08-12T21:36:43.188Z,79.40
2022-08-12T21:39:18.691Z,79.80
2022-08-12T21:41:52.711Z,80.30
2022-08-12T21:45:44.012Z,80.50
2022-08-12T21:47:20.016Z,81.20
